createdAt,value
2018-12-02T05:15:35.855Z,19.20
2018-12-02T05:18:31.450Z,20.77
2018-12-02T05:21:00.333Z,17.32
2018-12-02T05:23:29.195Z,19.17
2018-12-02T05:25:58.083Z,16.35
2018-12-02T05:28:27.092Z,18.75
2018-12-02T05:30:55.902Z,19.73
2018-12-02T05:33:35.305Z,20.45
2018-12-02T05:38:56.124Z,15.03
2018-12-02T05:41:31.232Z,15.90
2018-12-02T05:44:00.366Z,22.32
2018-12-02T05:46:29.477Z,17.85
2018-12-02T05:48:58.677Z,20.45
2018-12-02T05:51:27.509Z,17.02
2018-12-02T05:53:56.402Z,16.73
2018-12-02T05:56:25.290Z,20.90
2018-12-02T05:58:54.139Z,26.45
2018-12-02T06:01:22.970Z,17.70
2018-12-02T06:03:51.807Z,18.98
2018-12-02T06:06:20.630Z,53.85
2018-12-02T06:08:53.236Z,165.95
2018-12-02T06:11:28.851Z,103.30
2018-12-02T06:14:04.318Z,33.70
2018-12-02T06:16:33.200Z,37.95
2018-12-02T06:19:02.108Z,52.33
2018-12-02T06:21:34.465Z,84.60
2018-12-02T06:24:03.329Z,29.15
2018-12-02T06:44:18.479Z,17.42
2018-12-02T06:46:57.573Z,13.98
2018-12-02T06:49:26.681Z,15.00
2018-12-02T06:51:55.386Z,13.93
2018-12-02T06:54:27.105Z,15.68
2018-12-02T06:56:58.547Z,17.20
2018-12-02T07:03:43.147Z,16.40
2018-12-02T07:06:12.085Z,15.70
2018-12-02T07:08:40.857Z,17.77
2018-12-02T07:11:10.711Z,16.12
2018-12-02T07:14:59.372Z,16.80
2018-12-02T07:17:34.374Z,17.25
2018-12-02T07:20:27.098Z,17.07
2018-12-02T07:57:51.257Z,14.60
2018-12-02T08:00:20.607Z,22.07
2018-12-02T08:02:49.424Z,16.25
2018-12-02T08:05:18.481Z,18.73
2018-12-02T10:21:42.875Z,13.65
2018-12-02T10:24:11.667Z,12.45
2018-12-02T10:26:40.561Z,12.75
2018-12-02T10:29:09.436Z,13.48
2018-12-02T10:31:38.135Z,13.62
2018-12-02T10:34:07.307Z,11.18
2018-12-02T10:36:42.409Z,13.30
2018-12-02T10:39:11.376Z,15.60
2018-12-02T10:41:43.875Z,13.80
2018-12-02T10:44:12.886Z,20.17
2018-12-02T10:46:43.914Z,11.97
2018-12-02T10:49:10.496Z,13.22
2018-12-02T10:51:46.150Z,12.13
2018-12-02T10:54:14.975Z,12.00
2018-12-02T10:56:44.138Z,11.85
2018-12-02T10:59:13.130Z,13.10
2018-12-02T11:01:42.372Z,10.98
2018-12-02T11:04:23.359Z,13.43
2018-12-02T11:06:51.957Z,14.05
2018-12-02T11:25:45.103Z,8.38
2018-12-02T12:20:27.084Z,8.93
2018-12-02T12:25:44.418Z,8.48
2018-12-02T12:28:19.633Z,9.50
2018-12-02T12:30:50.975Z,7.60
2018-12-02T12:58:53.496Z,9.35
2018-12-02T13:01:22.293Z,10.63
2018-12-02T13:03:51.242Z,11.18
2018-12-02T13:06:21.157Z,11.25
2018-12-02T13:11:42.400Z,11.10
2018-12-02T13:14:11.218Z,9.55
2018-12-02T13:23:57.734Z,8.75
2018-12-02T13:26:27.146Z,9.25
2018-12-02T13:29:10.782Z,11.33
2018-12-02T13:38:17.518Z,11.18
2018-12-02T13:50:20.963Z,11.18
2018-12-02T13:55:45.823Z,10.55
2018-12-02T14:47:10.799Z,10.95
2018-12-02T14:50:06.751Z,9.83
2018-12-02T16:29:15.063Z,12.73
2018-12-02T16:31:55.818Z,12.47
2018-12-02T16:35:01.560Z,13.28
2018-12-02T17:39:27.891Z,23.50
2018-12-02T17:42:14.705Z,19.37
2018-12-02T17:45:03.615Z,20.05
2018-12-02T17:47:43.092Z,23.57
2018-12-02T17:50:43.062Z,20.65
2018-12-02T17:53:21.938Z,22.55
2018-12-02T17:56:14.161Z,20.82
2018-12-02T17:59:10.548Z,21.12
2018-12-02T18:02:01.312Z,20.70
2018-12-02T18:04:53.489Z,22.50
2018-12-02T18:07:35.210Z,22.73
2018-12-02T18:10:11.818Z,20.75
2018-12-02T18:12:47.807Z,21.40
2018-12-02T18:15:21.339Z,20.00
2018-12-02T18:17:52.141Z,18.90
2018-12-02T18:20:34.179Z,19.65
2018-12-02T18:23:09.550Z,19.40
2018-12-02T18:25:44.739Z,21.30
2018-12-02T18:28:35.710Z,20.75
2018-12-02T18:31:25.472Z,22.27
2018-12-02T18:36:54.255Z,22.15
2018-12-02T18:39:32.609Z,18.85
2018-12-02T18:45:10.413Z,17.15
2018-12-02T18:48:11.421Z,19.80
2018-12-02T19:47:01.130Z,11.18
2018-12-02T19:49:30.531Z,12.80
2018-12-02T19:51:59.824Z,12.37
2018-12-02T19:54:28.511Z,14.53
2018-12-02T19:56:57.469Z,15.43
2018-12-02T19:59:27.246Z,12.75
2018-12-02T20:01:56.321Z,9.70
2018-12-02T20:04:25.519Z,8.83
2018-12-02T20:06:54.995Z,9.30
2018-12-02T20:09:24.747Z,37.42
2018-12-02T20:11:59.913Z,10.10
2018-12-02T20:14:30.171Z,13.70
2018-12-02T20:16:59.097Z,14.85
2018-12-02T20:19:34.147Z,8.80
2018-12-02T20:22:08.853Z,7.97
2018-12-02T20:24:40.403Z,9.53
2018-12-02T20:27:14.147Z,7.47
2018-12-02T20:29:44.072Z,8.95
2018-12-02T20:32:17.761Z,8.60
2018-12-02T20:34:47.083Z,8.75
2018-12-02T20:37:15.983Z,7.75
2018-12-02T20:39:44.756Z,9.25
2018-12-02T20:45:04.845Z,7.75
2018-12-02T20:47:34.131Z,8.38
2018-12-02T20:50:02.823Z,7.10
2018-12-02T21:10:08.063Z,6.65
2018-12-02T21:12:40.143Z,10.35
2018-12-02T21:15:22.062Z,7.20
2018-12-02T21:17:52.994Z,6.37
2018-12-02T21:20:24.187Z,6.92
2018-12-02T21:22:53.061Z,5.90
2018-12-02T21:25:26.722Z,6.92
2018-12-02T21:27:57.519Z,8.78
2018-12-02T21:30:29.458Z,6.90
2018-12-02T21:32:59.645Z,8.40
2018-12-02T21:35:29.978Z,7.53
2018-12-02T21:37:58.999Z,7.78
2018-12-02T21:40:27.626Z,7.47
2018-12-02T21:43:01.087Z,6.50
2018-12-02T21:48:23.158Z,6.75
2018-12-02T21:50:57.099Z,7.80
2018-12-02T21:53:26.488Z,6.87
2018-12-02T21:55:57.137Z,8.83
2018-12-02T21:58:27.424Z,7.87
2018-12-02T22:03:59.916Z,17.95
2018-12-02T22:06:28.764Z,10.93
2018-12-02T22:08:57.664Z,11.75
2018-12-02T22:11:26.833Z,10.35
2018-12-02T22:13:55.727Z,11.40
2018-12-02T22:16:24.386Z,10.18
2018-12-02T22:18:53.318Z,10.05
2018-12-02T22:21:22.397Z,10.82
2018-12-02T22:23:51.165Z,8.40
2018-12-02T23:27:57.373Z,7.37
2018-12-02T23:34:26.433Z,7.70
2018-12-02T23:36:55.341Z,9.48
2018-12-02T23:39:26.057Z,14.23
2018-12-02T23:42:10.983Z,9.50
2018-12-02T23:45:01.618Z,9.60
2018-12-02T23:47:35.050Z,8.45
2018-12-02T23:50:11.623Z,12.88
2018-12-02T23:52:43.271Z,10.43
2018-12-02T23:55:13.826Z,8.80
2018-12-02T23:57:42.937Z,10.45
